createdAt,value
2019-04-03T00:00:06.758Z,8.33
2019-04-03T00:02:38.505Z,7.97
2019-04-03T00:05:10.349Z,9.40
2019-04-03T00:07:42.022Z,7.60
2019-04-03T00:10:14.142Z,8.53
2019-04-03T00:12:45.797Z,7.80
2019-04-03T00:15:19.255Z,7.63
2019-04-03T00:17:52.417Z,7.10
2019-04-03T00:20:24.134Z,7.33
2019-04-03T00:22:55.925Z,7.17
2019-04-03T00:25:27.572Z,7.80
2019-04-03T00:27:59.272Z,7.90
2019-04-03T00:30:31.249Z,7.83
2019-04-03T00:33:02.985Z,8.13
2019-04-03T00:35:34.649Z,7.33
2019-04-03T00:38:06.320Z,8.10
2019-04-03T00:40:37.984Z,7.30
2019-04-03T00:43:09.677Z,6.70
2019-04-03T00:45:41.393Z,7.20
2019-04-03T00:48:14.879Z,6.70
2019-04-03T00:50:46.963Z,5.43
2019-04-03T00:53:20.483Z,6.40
2019-04-03T00:55:52.160Z,6.33
2019-04-03T00:58:39.677Z,6.17
2019-04-03T01:01:12.574Z,5.93
2019-04-03T01:03:44.268Z,6.60
2019-04-03T01:06:16.145Z,6.27
2019-04-03T01:08:47.879Z,6.10
2019-04-03T01:11:19.551Z,4.67
2019-04-03T01:13:51.214Z,4.97
2019-04-03T01:16:22.856Z,4.87
2019-04-03T01:18:54.701Z,4.37
2019-04-03T01:21:27.537Z,3.90
2019-04-03T01:23:59.229Z,3.67
2019-04-03T01:26:30.972Z,3.60
2019-04-03T01:29:02.783Z,3.23
2019-04-03T01:31:34.364Z,3.10
2019-04-03T01:34:06.110Z,3.60
2019-04-03T01:36:37.768Z,3.30
2019-04-03T01:39:09.423Z,3.57
2019-04-03T01:41:41.105Z,3.10
2019-04-03T01:44:12.748Z,4.03
2019-04-03T01:46:44.833Z,3.60
2019-04-03T01:49:16.698Z,3.23
2019-04-03T01:51:48.376Z,3.40
2019-04-03T01:54:20.117Z,3.30
2019-04-03T01:56:51.800Z,3.53
2019-04-03T01:59:23.497Z,3.50
2019-04-03T02:01:55.208Z,3.20
2019-04-03T02:04:26.967Z,3.90
2019-04-03T02:06:58.665Z,3.50
2019-04-03T02:09:30.374Z,3.50
2019-04-03T02:12:02.285Z,3.47
2019-04-03T02:14:33.996Z,3.20
2019-04-03T02:17:05.802Z,3.60
2019-04-03T02:19:37.451Z,4.03
2019-04-03T02:22:09.102Z,3.73
2019-04-03T02:24:41.048Z,3.93
2019-04-03T02:27:12.698Z,3.50
2019-04-03T02:29:44.343Z,3.87
2019-04-03T02:32:16.126Z,5.00
2019-04-03T02:34:47.857Z,3.93
2019-04-03T02:37:19.708Z,4.23
2019-04-03T02:39:51.539Z,4.33
2019-04-03T02:42:23.746Z,4.30
2019-04-03T02:44:55.448Z,4.13
2019-04-03T02:47:27.364Z,4.13
2019-04-03T02:49:59.033Z,3.97
2019-04-03T02:52:31.021Z,4.40
2019-04-03T02:55:06.718Z,4.27
2019-04-03T02:57:36.554Z,4.00
2019-04-03T03:00:10.010Z,3.53
2019-04-03T03:02:44.138Z,4.20
2019-04-03T03:05:15.086Z,4.20
2019-04-03T03:07:46.983Z,3.43
2019-04-03T03:10:20.137Z,3.97
2019-04-03T03:12:52.385Z,4.20
2019-04-03T03:15:25.177Z,4.37
2019-04-03T03:17:57.360Z,3.53
2019-04-03T03:20:31.045Z,3.83
2019-04-03T03:23:03.408Z,3.23
2019-04-03T03:25:35.818Z,3.20
2019-04-03T03:28:08.367Z,3.17
2019-04-03T03:30:46.736Z,3.23
2019-04-03T03:33:32.062Z,4.10
2019-04-03T03:35:51.551Z,3.10
2019-04-03T03:38:27.309Z,3.20
2019-04-03T03:40:58.823Z,3.37
2019-04-03T03:43:31.106Z,3.27
2019-04-03T03:46:02.811Z,3.60
2019-04-03T03:48:34.792Z,3.57
2019-04-03T03:51:07.429Z,4.03
2019-04-03T03:53:44.078Z,3.70
2019-04-03T03:56:14.520Z,3.73
2019-04-03T03:58:47.132Z,3.10
2019-04-03T04:01:19.704Z,3.53
2019-04-03T04:03:52.027Z,3.10
2019-04-03T04:06:28.213Z,2.60
2019-04-03T04:08:58.277Z,3.27
2019-04-03T04:11:31.080Z,3.10
2019-04-03T04:14:03.997Z,3.40
2019-04-03T04:16:38.274Z,3.07
2019-04-03T04:19:10.203Z,2.90
2019-04-03T04:21:44.508Z,3.10
2019-04-03T04:24:17.389Z,2.77
2019-04-03T04:26:50.250Z,2.97
2019-04-03T04:29:23.503Z,3.30
2019-04-03T04:31:55.289Z,3.00
2019-04-03T04:34:27.145Z,3.07
2019-04-03T04:37:01.883Z,2.87
2019-04-03T04:39:32.958Z,2.87
2019-04-03T04:42:04.843Z,2.97
2019-04-03T04:44:36.500Z,2.60
2019-04-03T04:47:08.262Z,2.73
2019-04-03T04:49:40.000Z,2.80
2019-04-03T04:52:11.633Z,2.47
2019-04-03T04:54:43.298Z,2.67
2019-04-03T04:57:15.267Z,2.53
2019-04-03T04:59:46.910Z,2.37
2019-04-03T05:02:19.949Z,2.47
2019-04-03T05:04:52.156Z,2.40
2019-04-03T05:07:23.829Z,2.83
2019-04-03T05:09:55.495Z,2.90
2019-04-03T05:12:27.554Z,2.90
2019-04-03T05:14:59.268Z,3.63
2019-04-03T05:17:31.098Z,3.13
2019-04-03T05:20:02.829Z,2.97
2019-04-03T05:22:34.521Z,3.47
2019-04-03T05:25:06.445Z,3.17
2019-04-03T05:27:38.170Z,3.20
2019-04-03T05:30:10.282Z,3.60
2019-04-03T05:32:42.079Z,3.00
2019-04-03T05:35:14.939Z,3.30
2019-04-03T05:37:47.198Z,3.03
2019-04-03T05:40:19.047Z,2.80
2019-04-03T05:42:50.826Z,3.00
2019-04-03T05:45:22.723Z,3.50
2019-04-03T05:47:54.397Z,3.03
2019-04-03T05:50:29.142Z,3.80
2019-04-03T05:53:00.928Z,3.20
2019-04-03T05:55:32.561Z,3.80
2019-04-03T05:58:04.366Z,3.60
2019-04-03T06:00:38.189Z,3.13
2019-04-03T06:03:10.341Z,3.30
2019-04-03T06:05:43.894Z,3.00
2019-04-03T06:08:15.487Z,3.03
2019-04-03T06:10:49.723Z,3.90
2019-04-03T06:13:22.014Z,3.50
2019-04-03T06:15:54.135Z,3.50
2019-04-03T06:18:26.909Z,3.57
2019-04-03T06:20:58.684Z,4.10
2019-04-03T06:23:32.296Z,3.97
2019-04-03T06:26:03.971Z,3.97
2019-04-03T06:28:35.897Z,3.77
2019-04-03T06:31:08.890Z,3.80
2019-04-03T06:33:40.527Z,4.03
2019-04-03T06:36:12.220Z,3.37
2019-04-03T06:38:44.981Z,3.63
2019-04-03T06:41:16.775Z,3.50
2019-04-03T06:43:50.171Z,3.70
2019-04-03T06:46:21.797Z,3.70
2019-04-03T06:48:55.847Z,4.07
2019-04-03T06:51:27.836Z,4.27
2019-04-03T06:53:59.986Z,4.27
2019-04-03T06:56:31.747Z,4.20
2019-04-03T06:59:03.584Z,7.43
2019-04-03T07:01:35.256Z,4.83
2019-04-03T07:04:07.250Z,4.00
2019-04-03T07:06:38.928Z,3.37
2019-04-03T07:09:21.676Z,2.83
2019-04-03T07:11:44.115Z,2.50
2019-04-03T07:14:15.897Z,3.40
2019-04-03T07:16:47.749Z,3.00
2019-04-03T07:19:19.492Z,3.10
2019-04-03T07:21:51.195Z,3.00
2019-04-03T07:24:22.931Z,3.07
2019-04-03T07:26:54.990Z,3.20
2019-04-03T07:29:28.033Z,3.00
2019-04-03T07:31:59.768Z,3.20
2019-04-03T07:34:33.724Z,2.67
2019-04-03T07:37:04.906Z,3.00
2019-04-03T07:39:36.586Z,3.27
2019-04-03T07:42:08.377Z,3.43
2019-04-03T07:44:41.169Z,3.00
2019-04-03T07:47:12.991Z,3.00
2019-04-03T07:49:44.637Z,2.87
2019-04-03T07:52:17.832Z,3.30
2019-04-03T07:54:50.695Z,3.33
2019-04-03T07:57:22.861Z,2.73
2019-04-03T07:59:54.653Z,2.97
2019-04-03T08:02:26.308Z,2.90
2019-04-03T08:05:00.405Z,2.80
2019-04-03T08:07:31.615Z,2.60
2019-04-03T08:10:03.484Z,2.70
2019-04-03T08:12:35.885Z,3.00
2019-04-03T08:15:12.640Z,2.87
2019-04-03T08:17:42.903Z,3.00
2019-04-03T08:20:14.854Z,2.90
2019-04-03T08:22:47.135Z,2.80
2019-04-03T08:25:19.032Z,2.87
2019-04-03T08:27:50.783Z,3.27
2019-04-03T08:30:22.851Z,2.80
2019-04-03T08:32:54.981Z,3.00
2019-04-03T08:35:27.645Z,3.00
2019-04-03T08:38:00.887Z,2.70
2019-04-03T08:40:32.829Z,3.00
2019-04-03T08:43:04.568Z,2.60
2019-04-03T08:45:38.509Z,2.77
2019-04-03T08:48:10.246Z,2.77
2019-04-03T08:50:42.427Z,2.50
2019-04-03T08:53:15.695Z,2.73
2019-04-03T08:55:48.588Z,3.20
2019-04-03T08:58:21.527Z,3.00
2019-04-03T09:00:53.814Z,3.53
2019-04-03T09:03:25.544Z,3.10
2019-04-03T09:05:57.479Z,4.10
2019-04-03T09:08:29.248Z,4.47
2019-04-03T09:11:00.980Z,4.20
2019-04-03T09:13:33.449Z,4.00
2019-04-03T09:16:05.668Z,3.80
2019-04-03T09:18:38.348Z,4.27
2019-04-03T09:21:10.578Z,4.23
2019-04-03T09:23:42.302Z,4.40
2019-04-03T09:26:14.292Z,4.93
2019-04-03T09:28:46.034Z,4.57
2019-04-03T09:31:19.847Z,4.80
2019-04-03T09:33:51.963Z,4.23
2019-04-03T09:36:23.734Z,4.63
2019-04-03T09:38:55.383Z,4.60
2019-04-03T09:41:27.302Z,4.60
2019-04-03T09:43:58.929Z,4.60
2019-04-03T09:46:31.567Z,4.57
2019-04-03T09:49:03.744Z,4.43
2019-04-03T09:51:35.414Z,4.87
2019-04-03T09:54:07.278Z,5.10
2019-04-03T09:56:57.043Z,4.30
2019-04-03T09:59:15.924Z,4.80
2019-04-03T10:01:48.638Z,4.70
2019-04-03T10:04:21.487Z,8.27
2019-04-03T10:06:53.346Z,5.57
2019-04-03T10:09:25.201Z,4.90
2019-04-03T10:11:56.936Z,4.40
2019-04-03T10:14:29.071Z,4.73
2019-04-03T10:17:00.855Z,4.73
2019-04-03T10:19:32.523Z,4.73
2019-04-03T10:22:04.394Z,5.10
2019-04-03T10:24:36.455Z,5.70
2019-04-03T10:27:10.792Z,5.23
2019-04-03T10:29:41.635Z,5.30
2019-04-03T10:32:13.322Z,5.23
2019-04-03T10:34:45.138Z,5.07
2019-04-03T10:37:16.906Z,5.43
2019-04-03T10:39:52.428Z,5.43
2019-04-03T10:42:21.954Z,6.27
2019-04-03T10:44:53.633Z,5.53
2019-04-03T10:47:39.181Z,5.27
2019-04-03T10:49:58.679Z,5.20
2019-04-03T10:52:30.571Z,4.93
2019-04-03T10:55:02.410Z,5.07
2019-04-03T10:57:34.998Z,5.30
2019-04-03T11:00:10.454Z,4.87
2019-04-03T11:02:42.209Z,6.03
2019-04-03T11:05:15.110Z,5.57
2019-04-03T11:07:47.049Z,5.13
2019-04-03T11:10:19.418Z,5.27
2019-04-03T11:12:51.097Z,5.70
2019-04-03T11:15:22.786Z,5.13
2019-04-03T11:17:54.854Z,5.70
2019-04-03T11:20:26.657Z,5.43
2019-04-03T11:23:06.077Z,5.10
2019-04-03T11:25:31.794Z,4.73
2019-04-03T11:28:05.498Z,4.80
2019-04-03T11:30:36.983Z,4.97
2019-04-03T11:33:09.195Z,4.73
2019-04-03T11:35:41.134Z,5.40
2019-04-03T11:38:20.052Z,4.87
2019-04-03T11:40:49.922Z,4.93
2019-04-03T11:43:21.230Z,4.63
2019-04-03T11:45:53.103Z,5.17
2019-04-03T11:48:27.309Z,5.80
2019-04-03T11:50:59.565Z,5.90
2019-04-03T11:53:31.311Z,6.30
2019-04-03T11:56:03.248Z,5.50
2019-04-03T11:58:35.150Z,5.63
2019-04-03T12:01:08.699Z,4.93
2019-04-03T12:03:40.744Z,5.57
2019-04-03T12:06:15.839Z,5.47
2019-04-03T12:08:47.173Z,6.57
2019-04-03T12:11:20.513Z,6.30
2019-04-03T12:13:52.297Z,7.27
2019-04-03T12:16:26.668Z,6.50
2019-04-03T12:18:58.437Z,6.60
2019-04-03T12:21:30.287Z,6.90
2019-04-03T12:24:01.980Z,6.63
2019-04-03T12:26:33.772Z,5.63
2019-04-03T12:29:07.542Z,6.30
2019-04-03T12:31:39.110Z,6.37
2019-04-03T12:34:10.902Z,6.20
2019-04-03T12:36:45.190Z,6.17
2019-04-03T12:39:26.936Z,6.10
2019-04-03T12:41:59.314Z,5.43
2019-04-03T12:44:31.176Z,6.30
2019-04-03T12:47:05.165Z,7.00
2019-04-03T12:49:36.422Z,6.17
2019-04-03T12:52:08.162Z,6.80
2019-04-03T12:54:41.339Z,6.63
2019-04-03T12:57:13.807Z,6.53
2019-04-03T12:59:48.115Z,6.17
2019-04-03T13:02:21.063Z,5.83
2019-04-03T13:04:53.697Z,7.47
2019-04-03T13:07:27.306Z,6.13
2019-04-03T13:09:59.153Z,6.00
2019-04-03T13:12:31.147Z,6.47
2019-04-03T13:15:06.536Z,6.83
2019-04-03T13:17:39.152Z,7.37
2019-04-03T13:20:11.658Z,7.03
2019-04-03T13:22:46.083Z,7.87
2019-04-03T13:25:20.275Z,6.90
2019-04-03T13:27:51.927Z,6.47
2019-04-03T13:30:24.475Z,7.07
2019-04-03T13:32:59.857Z,5.70
2019-04-03T13:35:29.802Z,6.30
2019-04-03T13:38:03.015Z,7.10
2019-04-03T13:40:37.844Z,5.77
2019-04-03T13:43:10.319Z,5.67
2019-04-03T13:45:42.410Z,5.73
2019-04-03T13:48:14.512Z,5.47
2019-04-03T13:50:47.897Z,5.23
2019-04-03T13:53:20.608Z,5.50
2019-04-03T13:55:52.983Z,5.50
2019-04-03T13:58:27.577Z,4.67
2019-04-03T14:01:02.114Z,5.43
2019-04-03T14:03:32.355Z,4.50
2019-04-03T14:06:05.282Z,4.57
2019-04-03T14:08:37.805Z,4.33
2019-04-03T14:11:09.688Z,4.67
2019-04-03T14:13:43.649Z,3.53
2019-04-03T14:16:21.660Z,3.57
2019-04-03T14:18:51.142Z,2.87
2019-04-03T14:21:23.296Z,2.87
2019-04-03T14:23:55.466Z,2.97
2019-04-03T14:26:27.437Z,3.97
2019-04-03T14:28:59.314Z,4.77
2019-04-03T14:31:35.834Z,4.90
2019-04-03T14:34:05.065Z,4.03
2019-04-03T14:36:38.345Z,4.23
2019-04-03T14:39:10.402Z,6.77
2019-04-03T14:41:43.443Z,4.00
2019-04-03T14:44:15.143Z,3.10
2019-04-03T14:46:50.031Z,9.50
2019-04-03T14:49:20.354Z,4.53
2019-04-03T14:51:52.241Z,34.43
2019-04-03T14:54:24.626Z,6.33
2019-04-03T14:56:57.266Z,3.00
2019-04-03T14:59:30.279Z,2.40
2019-04-03T15:02:02.638Z,2.70
2019-04-03T15:04:36.548Z,2.47
2019-04-03T15:07:09.430Z,2.50
2019-04-03T15:09:41.465Z,2.33
2019-04-03T15:12:13.534Z,2.20
2019-04-03T15:14:45.385Z,2.40
2019-04-03T15:17:17.164Z,2.40
2019-04-03T15:19:49.291Z,2.20
2019-04-03T15:22:21.517Z,2.37
2019-04-03T15:24:53.272Z,2.43
2019-04-03T15:27:26.827Z,2.50
2019-04-03T15:29:58.820Z,2.03
2019-04-03T15:32:30.533Z,2.30
2019-04-03T15:35:02.919Z,2.70
2019-04-03T15:37:34.898Z,2.70
2019-04-03T15:40:09.387Z,2.70
2019-04-03T15:42:41.986Z,4.53
2019-04-03T15:45:14.573Z,7.90
2019-04-03T15:47:47.634Z,4.00
2019-04-03T15:50:20.027Z,3.10
2019-04-03T15:52:52.240Z,2.77
2019-04-03T15:55:25.249Z,3.00
2019-04-03T15:57:58.409Z,2.73
2019-04-03T16:00:34.347Z,2.57
2019-04-03T16:03:05.450Z,2.80
2019-04-03T16:05:37.435Z,2.63
2019-04-03T16:08:12.418Z,3.10
2019-04-03T16:10:45.540Z,3.20
2019-04-03T16:13:17.612Z,2.80
2019-04-03T16:15:49.366Z,2.90
2019-04-03T16:18:21.294Z,2.80
2019-04-03T16:20:53.042Z,2.73
2019-04-03T16:23:25.136Z,2.27
2019-04-03T16:25:56.988Z,2.60
2019-04-03T16:28:33.381Z,2.87
2019-04-03T16:31:03.762Z,2.73
2019-04-03T16:33:36.739Z,2.73
2019-04-03T16:36:09.350Z,2.50
2019-04-03T16:38:41.449Z,2.87
2019-04-03T16:41:13.531Z,2.37
2019-04-03T16:43:45.260Z,2.40
2019-04-03T16:46:17.282Z,2.50
2019-04-03T16:48:49.903Z,2.27
2019-04-03T16:51:22.687Z,2.10
2019-04-03T16:53:54.461Z,2.20
2019-04-03T16:56:26.420Z,2.23
2019-04-03T16:59:00.644Z,2.30
2019-04-03T17:01:33.276Z,2.07
2019-04-03T17:04:05.303Z,2.10
2019-04-03T17:06:37.053Z,2.23
2019-04-03T17:09:09.717Z,2.20
2019-04-03T17:11:44.861Z,1.97
2019-04-03T17:14:15.163Z,2.13
2019-04-03T17:16:47.067Z,2.03
2019-04-03T17:19:18.939Z,2.07
2019-04-03T17:21:50.820Z,2.10
2019-04-03T17:24:22.569Z,2.13
2019-04-03T17:26:58.219Z,2.20
2019-04-03T17:29:27.894Z,1.80
2019-04-03T17:31:59.840Z,1.63
2019-04-03T17:34:31.686Z,1.80
2019-04-03T17:37:03.525Z,1.80
2019-04-03T17:39:35.720Z,2.00
2019-04-03T17:42:08.663Z,2.27
2019-04-03T17:44:40.973Z,2.30
2019-04-03T17:47:13.801Z,2.67
2019-04-03T17:49:45.551Z,2.20
2019-04-03T17:52:17.284Z,1.80
2019-04-03T17:54:49.087Z,2.10
2019-04-03T17:57:20.914Z,2.13
2019-04-03T17:59:52.787Z,2.07
2019-04-03T18:02:25.104Z,2.07
2019-04-03T18:04:56.875Z,2.40
2019-04-03T18:07:30.040Z,1.93
2019-04-03T18:10:02.060Z,2.00
2019-04-03T18:12:33.918Z,1.93
2019-04-03T18:15:07.269Z,1.90
2019-04-03T18:17:39.328Z,1.53
2019-04-03T18:20:13.326Z,1.43
2019-04-03T18:22:45.235Z,1.67
2019-04-03T18:25:17.821Z,2.37
2019-04-03T18:27:49.727Z,2.17
2019-04-03T18:30:22.077Z,2.03
2019-04-03T18:32:54.086Z,2.20
2019-04-03T18:35:26.338Z,2.30
2019-04-03T18:37:58.325Z,1.50
2019-04-03T18:40:30.273Z,1.60
2019-04-03T18:43:02.038Z,1.80
2019-04-03T18:45:33.792Z,1.87
2019-04-03T18:48:05.735Z,1.80
2019-04-03T18:50:37.485Z,1.87
2019-04-03T18:53:09.757Z,1.60
2019-04-03T18:55:44.615Z,1.70
2019-04-03T18:58:15.754Z,1.93
2019-04-03T19:00:50.668Z,2.00
2019-04-03T19:03:22.622Z,2.17
2019-04-03T19:05:54.386Z,2.00
2019-04-03T19:08:26.199Z,2.00
2019-04-03T19:11:02.683Z,1.63
2019-04-03T19:13:31.508Z,1.60
2019-04-03T19:16:03.317Z,1.80
2019-04-03T19:18:35.153Z,1.70
2019-04-03T19:21:07.056Z,1.70
2019-04-03T19:23:49.216Z,1.63
2019-04-03T19:26:12.305Z,1.53
2019-04-03T19:28:44.209Z,1.83
2019-04-03T19:31:20.059Z,1.30
2019-04-03T19:33:52.074Z,1.90
2019-04-03T19:36:24.124Z,2.20
2019-04-03T19:38:56.030Z,1.90
2019-04-03T19:41:27.789Z,1.87
2019-04-03T19:44:00.773Z,2.30
2019-04-03T19:46:32.716Z,1.97
2019-04-03T19:49:04.831Z,2.00
2019-04-03T19:51:38.046Z,2.17
2019-04-03T19:54:11.336Z,2.10
2019-04-03T19:56:44.876Z,2.30
2019-04-03T19:59:16.739Z,2.43
2019-04-03T20:01:48.596Z,2.07
2019-04-03T20:04:21.441Z,3.07
2019-04-03T20:06:54.769Z,3.10
2019-04-03T20:09:26.665Z,2.13
2019-04-03T20:11:58.593Z,2.27
2019-04-03T20:14:30.403Z,2.27
2019-04-03T20:17:02.379Z,2.17
2019-04-03T20:19:34.287Z,2.27
2019-04-03T20:22:07.104Z,2.50
2019-04-03T20:24:39.283Z,2.17
2019-04-03T20:27:11.176Z,2.67
2019-04-03T20:29:42.891Z,2.70
2019-04-03T20:32:16.549Z,2.67
2019-04-03T20:34:48.423Z,2.37
2019-04-03T20:37:20.485Z,2.87
2019-04-03T20:39:52.295Z,3.00
2019-04-03T20:42:25.494Z,3.07
2019-04-03T20:44:57.178Z,2.73
2019-04-03T20:47:30.805Z,2.57
2019-04-03T20:50:02.638Z,2.30
2019-04-03T20:52:35.066Z,2.73
2019-04-03T20:55:08.949Z,3.10
2019-04-03T20:57:40.863Z,2.70
2019-04-03T21:00:18.024Z,2.97
2019-04-03T21:02:48.472Z,2.67
2019-04-03T21:05:20.320Z,2.97
2019-04-03T21:07:52.308Z,3.13
2019-04-03T21:10:25.733Z,3.03
2019-04-03T21:12:57.435Z,2.87
2019-04-03T21:15:29.533Z,3.30
2019-04-03T21:18:02.472Z,3.13
2019-04-03T21:20:35.304Z,3.40
2019-04-03T21:23:08.911Z,3.40
2019-04-03T21:25:40.862Z,3.57
2019-04-03T21:28:12.494Z,4.10
2019-04-03T21:30:44.244Z,3.73
2019-04-03T21:33:17.472Z,4.07
2019-04-03T21:35:49.506Z,3.70
2019-04-03T21:38:21.202Z,3.97
2019-04-03T21:40:55.627Z,4.20
2019-04-03T21:43:27.235Z,4.33
2019-04-03T21:45:59.861Z,4.40
2019-04-03T21:48:31.551Z,4.17
2019-04-03T21:51:04.517Z,4.90
2019-04-03T21:53:36.392Z,4.13
2019-04-03T21:56:08.220Z,5.07
2019-04-03T21:58:40.381Z,4.77
2019-04-03T22:01:23.761Z,5.03
2019-04-03T22:03:56.499Z,5.60
2019-04-03T22:06:28.351Z,5.47
2019-04-03T22:09:00.752Z,5.70
2019-04-03T22:11:34.788Z,5.80
2019-04-03T22:14:06.098Z,5.40
2019-04-03T22:16:38.037Z,6.07
2019-04-03T22:19:09.788Z,6.17
2019-04-03T22:21:43.358Z,6.43
2019-04-03T22:24:15.237Z,6.20
2019-04-03T22:26:47.004Z,7.10
2019-04-03T22:29:20.432Z,6.07
2019-04-03T22:31:54.425Z,6.43
2019-04-03T22:34:25.760Z,6.10
2019-04-03T22:36:57.507Z,6.20
2019-04-03T22:39:30.690Z,6.50
2019-04-03T22:42:02.520Z,6.23
2019-04-03T22:44:34.393Z,6.67
2019-04-03T22:47:06.128Z,7.20
2019-04-03T22:49:37.881Z,6.03
2019-04-03T22:52:09.680Z,6.63
2019-04-03T22:54:43.604Z,6.20
2019-04-03T22:57:15.085Z,6.90
2019-04-03T22:59:48.277Z,6.40
2019-04-03T23:02:19.947Z,6.77
2019-04-03T23:04:51.619Z,6.47
2019-04-03T23:07:23.493Z,6.67
2019-04-03T23:09:56.759Z,6.77
2019-04-03T23:12:28.535Z,7.23
2019-04-03T23:15:00.328Z,6.50
2019-04-03T23:17:32.005Z,6.13
2019-04-03T23:20:04.733Z,6.73
2019-04-03T23:22:36.517Z,7.23
2019-04-03T23:25:08.459Z,7.33
2019-04-03T23:27:40.274Z,7.33
2019-04-03T23:30:11.985Z,7.33
2019-04-03T23:32:45.934Z,6.90
2019-04-03T23:35:17.207Z,7.13
2019-04-03T23:37:48.960Z,7.13
2019-04-03T23:40:20.654Z,7.10
2019-04-03T23:42:52.482Z,7.07
2019-04-03T23:45:26.256Z,7.53
2019-04-03T23:47:59.044Z,7.63
2019-04-03T23:50:30.701Z,7.90
2019-04-03T23:53:02.398Z,7.83
2019-04-03T23:55:36.280Z,7.80
2019-04-03T23:58:10.651Z,7.43
